RJTT/HND METAR and TAF weather

Enter ICAO airport designator
Station Type Date Time Source
RJTT METAR 2020/10/29 17:00 UTC NOAA

RJTT 291700Z 35016KT 9999 BKN042 16/06 Q1017 NOSIG


Station Type Date Time Source
RJTT Decoded METAR 2020/10/29 17:00 UTC NOAA

Tokyo International Airport, Japan (RJTT) 35-33N 139-47E 8M
Oct 29, 2020 - 01:00 PM EDT / 2020.10.29 1700 UTC
Wind: from the N (350 degrees) at 18 MPH (16 KT):0
Visibility: greater than 7 mile(s):0
Sky conditions: mostly cloudy
Temperature: 60 F (16 C)
Dew Point: 42 F (6 C)
Relative Humidity: 51%
Pressure (altimeter): 30.03 in. Hg (1017 hPa)
ob: RJTT 291700Z 35016KT 9999 BKN042 16/06 Q1017 NOSIG
cycle: 17

Station Type Date Time Source
RJTT TAF 2020/10/29 18:28 UTC NOAA

TAF RJTT 291705Z 2918/3100 36014KT 9999 FEW030 BKN060

Example: see airport list